sensor_id;sensor_type;location;lat;lon;timestamp;P1;durP1;ratioP1;P2;durP2;ratioP2
54139;SDS011;40046;53.254;5.900;2023-05-21T00:00:23;6.28;;;3.88;;
54139;SDS011;40046;53.254;5.900;2023-05-21T00:02:49;5.88;;;3.47;;
54139;SDS011;40046;53.254;5.900;2023-05-21T00:05:15;7.28;;;4.00;;
54139;SDS011;40046;53.254;5.900;2023-05-21T00:07:42;5.40;;;3.28;;
54139;SDS011;40046;53.254;5.900;2023-05-21T00:10:10;6.18;;;3.78;;
54139;SDS011;40046;53.254;5.900;2023-05-21T00:12:36;9.13;;;4.90;;
54139;SDS011;40046;53.254;5.900;2023-05-21T00:15:02;6.55;;;4.00;;
54139;SDS011;40046;53.254;5.900;2023-05-21T00:17:29;5.28;;;3.53;;
54139;SDS011;40046;53.254;5.900;2023-05-21T00:19:55;7.50;;;3.53;;
54139;SDS011;40046;53.254;5.900;2023-05-21T00:22:21;10.63;;;3.70;;
54139;SDS011;40046;53.254;5.900;2023-05-21T00:24:48;8.18;;;3.92;;
54139;SDS011;40046;53.254;5.900;2023-05-21T00:27:14;7.25;;;4.40;;
54139;SDS011;40046;53.254;5.900;2023-05-21T00:29:40;8.45;;;3.80;;
54139;SDS011;40046;53.254;5.900;2023-05-21T00:32:08;8.10;;;3.47;;
54139;SDS011;40046;53.254;5.900;2023-05-21T00:34:34;6.00;;;3.80;;
54139;SDS011;40046;53.254;5.900;2023-05-21T00:37:01;7.32;;;4.32;;
54139;SDS011;40046;53.254;5.900;2023-05-21T00:39:27;7.63;;;4.43;;
54139;SDS011;40046;53.254;5.900;2023-05-21T00:41:53;6.88;;;3.53;;
54139;SDS011;40046;53.254;5.900;2023-05-21T00:44:21;6.65;;;3.97;;
54139;SDS011;40046;53.254;5.900;2023-05-21T00:46:48;7.15;;;4.22;;
54139;SDS011;40046;53.254;5.900;2023-05-21T00:49:18;6.63;;;3.75;;
54139;SDS011;40046;53.254;5.900;2023-05-21T00:51:46;7.15;;;4.13;;
54139;SDS011;40046;53.254;5.900;2023-05-21T00:54:13;6.57;;;3.75;;
54139;SDS011;40046;53.254;5.900;2023-05-21T00:56:39;8.98;;;4.78;;
54139;SDS011;40046;53.254;5.900;2023-05-21T00:59:05;5.72;;;4.13;;
54139;SDS011;40046;53.254;5.900;2023-05-21T01:01:32;6.00;;;3.92;;
54139;SDS011;40046;53.254;5.900;2023-05-21T01:04:00;5.43;;;3.95;;
54139;SDS011;40046;53.254;5.900;2023-05-21T01:06:27;6.28;;;3.67;;
54139;SDS011;40046;53.254;5.900;2023-05-21T01:08:53;8.23;;;3.95;;
54139;SDS011;40046;53.254;5.900;2023-05-21T01:11:25;8.40;;;3.97;;
54139;SDS011;40046;53.254;5.900;2023-05-21T01:13:54;7.03;;;3.88;;
54139;SDS011;40046;53.254;5.900;2023-05-21T01:16:20;7.20;;;4.00;;
54139;SDS011;40046;53.254;5.900;2023-05-21T01:18:47;7.47;;;4.38;;
54139;SDS011;40046;53.254;5.900;2023-05-21T01:21:14;7.65;;;4.28;;
54139;SDS011;40046;53.254;5.900;2023-05-21T01:23:41;5.75;;;3.78;;
54139;SDS011;40046;53.254;5.900;2023-05-21T01:26:07;7.85;;;4.28;;
54139;SDS011;40046;53.254;5.900;2023-05-21T01:28:36;5.93;;;4.15;;
54139;SDS011;40046;53.254;5.900;2023-05-21T01:31:06;9.75;;;4.53;;
54139;SDS011;40046;53.254;5.900;2023-05-21T01:33:37;9.75;;;4.10;;
54139;SDS011;40046;53.254;5.900;2023-05-21T01:36:17;9.75;;;5.07;;
54139;SDS011;40046;53.254;5.900;2023-05-21T01:38:52;7.70;;;4.80;;
54139;SDS011;40046;53.254;5.900;2023-05-21T01:41:20;10.90;;;5.30;;
54139;SDS011;40046;53.254;5.900;2023-05-21T01:43:47;9.07;;;5.32;;
54139;SDS011;40046;53.254;5.900;2023-05-21T01:46:22;10.07;;;5.32;;
54139;SDS011;40046;53.254;5.900;2023-05-21T01:48:48;11.10;;;6.53;;
54139;SDS011;40046;53.254;5.900;2023-05-21T01:51:15;7.65;;;4.80;;
54139;SDS011;40046;53.254;5.900;2023-05-21T01:53:41;12.85;;;5.40;;
54139;SDS011;40046;53.254;5.900;2023-05-21T01:56:07;8.65;;;5.07;;
54139;SDS011;40046;53.254;5.900;2023-05-21T01:58:35;9.32;;;6.07;;
54139;SDS011;40046;53.254;5.900;2023-05-21T02:01:01;10.77;;;6.72;;
54139;SDS011;40046;53.254;5.900;2023-05-21T02:03:29;11.77;;;5.75;;
54139;SDS011;40046;53.254;5.900;2023-05-21T02:05:56;11.15;;;6.00;;
54139;SDS011;40046;53.254;5.900;2023-05-21T02:08:22;10.95;;;6.35;;
54139;SDS011;40046;53.254;5.900;2023-05-21T02:10:49;11.63;;;5.72;;
54139;SDS011;40046;53.254;5.900;2023-05-21T02:13:15;12.40;;;6.60;;
54139;SDS011;40046;53.254;5.900;2023-05-21T02:15:45;13.02;;;6.38;;
54139;SDS011;40046;53.254;5.900;2023-05-21T02:18:11;12.40;;;6.05;;
54139;SDS011;40046;53.254;5.900;2023-05-21T02:20:41;11.23;;;5.45;;
54139;SDS011;40046;53.254;5.900;2023-05-21T02:23:07;11.32;;;6.30;;
54139;SDS011;40046;53.254;5.900;2023-05-21T02:25:34;11.35;;;5.78;;
54139;SDS011;40046;53.254;5.900;2023-05-21T02:28:00;13.80;;;6.13;;
54139;SDS011;40046;53.254;5.900;2023-05-21T02:30:26;12.07;;;6.47;;
54139;SDS011;40046;53.254;5.900;2023-05-21T02:32:53;15.35;;;7.35;;
54139;SDS011;40046;53.254;5.900;2023-05-21T02:35:19;13.77;;;6.47;;
54139;SDS011;40046;53.254;5.900;2023-05-21T02:37:46;16.27;;;6.90;;
54139;SDS011;40046;53.254;5.900;2023-05-21T02:40:14;11.52;;;5.80;;
54139;SDS011;40046;53.254;5.900;2023-05-21T02:42:40;12.57;;;6.72;;
54139;SDS011;40046;53.254;5.900;2023-05-21T02:45:11;13.32;;;6.53;;
54139;SDS011;40046;53.254;5.900;2023-05-21T02:47:40;13.65;;;6.25;;
54139;SDS011;40046;53.254;5.900;2023-05-21T02:50:06;10.05;;;6.38;;
54139;SDS011;40046;53.254;5.900;2023-05-21T02:52:36;16.27;;;6.53;;
54139;SDS011;40046;53.254;5.900;2023-05-21T02:55:02;12.38;;;5.97;;
54139;SDS011;40046;53.254;5.900;2023-05-21T02:57:28;16.65;;;6.88;;
54139;SDS011;40046;53.254;5.900;2023-05-21T02:59:55;13.63;;;6.78;;
54139;SDS011;40046;53.254;5.900;2023-05-21T03:02:22;15.30;;;5.88;;
54139;SDS011;40046;53.254;5.900;2023-05-21T03:04:48;11.93;;;5.53;;
54139;SDS011;40046;53.254;5.900;2023-05-21T03:07:15;11.10;;;5.95;;
54139;SDS011;40046;53.254;5.900;2023-05-21T03:09:45;12.80;;;6.22;;
54139;SDS011;40046;53.254;5.900;2023-05-21T03:12:12;12.00;;;6.03;;
54139;SDS011;40046;53.254;5.900;2023-05-21T03:14:38;15.02;;;6.03;;
54139;SDS011;40046;53.254;5.900;2023-05-21T03:17:06;15.73;;;5.85;;
54139;SDS011;40046;53.254;5.900;2023-05-21T03:19:32;11.43;;;5.43;;
54139;SDS011;40046;53.254;5.900;2023-05-21T03:22:01;13.27;;;5.75;;
54139;SDS011;40046;53.254;5.900;2023-05-21T03:24:28;13.20;;;6.70;;
54139;SDS011;40046;53.254;5.900;2023-05-21T03:26:55;12.20;;;5.80;;
54139;SDS011;40046;53.254;5.900;2023-05-21T03:29:22;12.55;;;6.45;;
54139;SDS011;40046;53.254;5.900;2023-05-21T03:31:48;14.40;;;6.22;;
54139;SDS011;40046;53.254;5.900;2023-05-21T03:34:15;14.15;;;6.00;;
54139;SDS011;40046;53.254;5.900;2023-05-21T03:36:41;13.90;;;6.15;;
54139;SDS011;40046;53.254;5.900;2023-05-21T03:39:07;12.63;;;5.85;;
54139;SDS011;40046;53.254;5.900;2023-05-21T03:41:33;14.30;;;5.78;;
54139;SDS011;40046;53.254;5.900;2023-05-21T03:44:09;13.45;;;6.40;;
54139;SDS011;40046;53.254;5.900;2023-05-21T03:46:47;12.55;;;6.32;;
54139;SDS011;40046;53.254;5.900;2023-05-21T03:49:23;12.88;;;5.38;;
54139;SDS011;40046;53.254;5.900;2023-05-21T03:51:52;12.48;;;5.72;;
54139;SDS011;40046;53.254;5.900;2023-05-21T03:54:19;21.73;;;7.00;;
54139;SDS011;40046;53.254;5.900;2023-05-21T03:56:47;19.77;;;7.82;;
54139;SDS011;40046;53.254;5.900;2023-05-21T03:59:13;14.88;;;6.03;;
54139;SDS011;40046;53.254;5.900;2023-05-21T04:01:41;11.50;;;5.72;;
54139;SDS011;40046;53.254;5.900;2023-05-21T04:04:11;13.48;;;5.43;;
54139;SDS011;40046;53.254;5.900;2023-05-21T04:06:38;16.15;;;5.50;;
54139;SDS011;40046;53.254;5.900;2023-05-21T04:09:07;10.60;;;5.65;;
54139;SDS011;40046;53.254;5.900;2023-05-21T04:11:34;9.73;;;5.10;;
54139;SDS011;40046;53.254;5.900;2023-05-21T04:14:02;15.10;;;6.47;;
54139;SDS011;40046;53.254;5.900;2023-05-21T04:16:28;14.70;;;5.35;;
54139;SDS011;40046;53.254;5.900;2023-05-21T04:18:54;15.00;;;5.57;;
54139;SDS011;40046;53.254;5.900;2023-05-21T04:21:22;12.35;;;4.90;;
54139;SDS011;40046;53.254;5.900;2023-05-21T04:23:48;12.75;;;5.20;;
54139;SDS011;40046;53.254;5.900;2023-05-21T04:26:28;10.55;;;5.30;;
54139;SDS011;40046;53.254;5.900;2023-05-21T04:28:58;13.30;;;5.35;;
54139;SDS011;40046;53.254;5.900;2023-05-21T04:31:29;11.27;;;5.03;;
54139;SDS011;40046;53.254;5.900;2023-05-21T04:33:56;16.65;;;6.43;;
54139;SDS011;40046;53.254;5.900;2023-05-21T04:36:23;14.13;;;5.13;;
54139;SDS011;40046;53.254;5.900;2023-05-21T04:38:53;16.83;;;5.32;;
54139;SDS011;40046;53.254;5.900;2023-05-21T04:41:20;16.27;;;5.28;;
54139;SDS011;40046;53.254;5.900;2023-05-21T04:43:46;14.32;;;4.93;;
54139;SDS011;40046;53.254;5.900;2023-05-21T04:46:13;16.23;;;6.15;;
54139;SDS011;40046;53.254;5.900;2023-05-21T04:48:40;17.33;;;5.15;;
54139;SDS011;40046;53.254;5.900;2023-05-21T04:51:07;13.27;;;4.72;;
54139;SDS011;40046;53.254;5.900;2023-05-21T04:53:33;12.75;;;5.57;;
54139;SDS011;40046;53.254;5.900;2023-05-21T04:56:00;13.38;;;4.60;;
54139;SDS011;40046;53.254;5.900;2023-05-21T04:58:28;13.25;;;4.22;;
54139;SDS011;40046;53.254;5.900;2023-05-21T05:00:56;14.95;;;4.57;;
54139;SDS011;40046;53.254;5.900;2023-05-21T05:03:26;10.35;;;4.03;;
54139;SDS011;40046;53.254;5.900;2023-05-21T05:05:53;9.32;;;4.10;;
54139;SDS011;40046;53.254;5.900;2023-05-21T05:08:19;13.65;;;4.95;;
54139;SDS011;40046;53.254;5.900;2023-05-21T05:10:46;15.95;;;5.18;;
54139;SDS011;40046;53.254;5.900;2023-05-21T05:13:13;14.52;;;5.22;;
54139;SDS011;40046;53.254;5.900;2023-05-21T05:15:39;12.05;;;4.43;;
54139;SDS011;40046;53.254;5.900;2023-05-21T05:18:07;14.25;;;5.05;;
54139;SDS011;40046;53.254;5.900;2023-05-21T05:20:33;11.38;;;4.78;;
54139;SDS011;40046;53.254;5.900;2023-05-21T05:22:59;12.68;;;4.97;;
54139;SDS011;40046;53.254;5.900;2023-05-21T05:25:25;16.83;;;5.70;;
54139;SDS011;40046;53.254;5.900;2023-05-21T05:27:51;11.32;;;5.57;;
54139;SDS011;40046;53.254;5.900;2023-05-21T05:30:18;15.38;;;5.30;;
54139;SDS011;40046;53.254;5.900;2023-05-21T05:32:44;14.68;;;5.82;;
54139;SDS011;40046;53.254;5.900;2023-05-21T05:35:10;12.88;;;4.45;;
54139;SDS011;40046;53.254;5.900;2023-05-21T05:37:37;21.10;;;5.57;;
54139;SDS011;40046;53.254;5.900;2023-05-21T05:40:05;17.75;;;6.10;;
54139;SDS011;40046;53.254;5.900;2023-05-21T05:42:32;12.52;;;4.40;;
54139;SDS011;40046;53.254;5.900;2023-05-21T05:45:02;10.50;;;5.38;;
54139;SDS011;40046;53.254;5.900;2023-05-21T05:47:28;10.35;;;4.53;;
54139;SDS011;40046;53.254;5.900;2023-05-21T05:49:55;10.57;;;4.35;;
54139;SDS011;40046;53.254;5.900;2023-05-21T05:52:21;12.68;;;5.32;;
54139;SDS011;40046;53.254;5.900;2023-05-21T05:54:48;12.23;;;4.65;;
54139;SDS011;40046;53.254;5.900;2023-05-21T05:57:14;11.68;;;4.53;;
54139;SDS011;40046;53.254;5.900;2023-05-21T05:59:40;18.27;;;5.82;;
54139;SDS011;40046;53.254;5.900;2023-05-21T06:02:06;15.85;;;4.78;;
54139;SDS011;40046;53.254;5.900;2023-05-21T06:04:33;12.95;;;4.97;;
54139;SDS011;40046;53.254;5.900;2023-05-21T06:06:59;11.65;;;5.28;;
54139;SDS011;40046;53.254;5.900;2023-05-21T06:09:25;10.15;;;3.95;;
54139;SDS011;40046;53.254;5.900;2023-05-21T06:11:51;12.77;;;4.43;;
54139;SDS011;40046;53.254;5.900;2023-05-21T06:14:17;9.55;;;3.80;;
54139;SDS011;40046;53.254;5.900;2023-05-21T06:16:43;12.27;;;3.95;;
54139;SDS011;40046;53.254;5.900;2023-05-21T06:19:09;9.05;;;4.10;;
54139;SDS011;40046;53.254;5.900;2023-05-21T06:21:36;15.55;;;3.70;;
54139;SDS011;40046;53.254;5.900;2023-05-21T06:24:03;14.00;;;5.15;;
54139;SDS011;40046;53.254;5.900;2023-05-21T06:26:30;19.75;;;4.93;;
54139;SDS011;40046;53.254;5.900;2023-05-21T06:28:57;11.65;;;5.00;;
54139;SDS011;40046;53.254;5.900;2023-05-21T06:31:23;11.07;;;4.53;;
54139;SDS011;40046;53.254;5.900;2023-05-21T06:33:49;9.00;;;4.20;;
54139;SDS011;40046;53.254;5.900;2023-05-21T06:36:15;9.05;;;5.43;;
54139;SDS011;40046;53.254;5.900;2023-05-21T06:38:42;12.32;;;4.47;;
54139;SDS011;40046;53.254;5.900;2023-05-21T06:41:08;13.00;;;4.53;;
54139;SDS011;40046;53.254;5.900;2023-05-21T06:43:51;14.02;;;4.28;;
54139;SDS011;40046;53.254;5.900;2023-05-21T06:46:36;13.65;;;5.45;;
54139;SDS011;40046;53.254;5.900;2023-05-21T06:49:05;10.13;;;4.35;;
54139;SDS011;40046;53.254;5.900;2023-05-21T06:51:32;10.55;;;4.20;;
54139;SDS011;40046;53.254;5.900;2023-05-21T06:53:59;11.10;;;4.30;;
54139;SDS011;40046;53.254;5.900;2023-05-21T06:56:26;9.75;;;4.03;;
54139;SDS011;40046;53.254;5.900;2023-05-21T06:58:53;12.60;;;4.20;;
54139;SDS011;40046;53.254;5.900;2023-05-21T07:01:20;12.48;;;4.05;;
54139;SDS011;40046;53.254;5.900;2023-05-21T07:03:46;6.90;;;3.47;;
54139;SDS011;40046;53.254;5.900;2023-05-21T07:06:13;16.52;;;5.03;;
54139;SDS011;40046;53.254;5.900;2023-05-21T07:08:39;10.00;;;4.00;;
54139;SDS011;40046;53.254;5.900;2023-05-21T07:11:05;8.23;;;4.05;;
54139;SDS011;40046;53.254;5.900;2023-05-21T07:13:31;9.93;;;3.75;;
54139;SDS011;40046;53.254;5.900;2023-05-21T07:15:57;10.35;;;4.07;;
54139;SDS011;40046;53.254;5.900;2023-05-21T07:18:24;7.88;;;3.38;;
54139;SDS011;40046;53.254;5.900;2023-05-21T07:20:51;10.43;;;4.93;;
54139;SDS011;40046;53.254;5.900;2023-05-21T07:23:18;11.88;;;4.68;;
54139;SDS011;40046;53.254;5.900;2023-05-21T07:25:45;8.90;;;4.53;;
54139;SDS011;40046;53.254;5.900;2023-05-21T07:28:12;9.20;;;4.50;;
54139;SDS011;40046;53.254;5.900;2023-05-21T07:30:38;7.30;;;4.97;;
54139;SDS011;40046;53.254;5.900;2023-05-21T07:33:09;11.15;;;4.38;;
54139;SDS011;40046;53.254;5.900;2023-05-21T07:35:37;11.05;;;4.47;;
54139;SDS011;40046;53.254;5.900;2023-05-21T07:38:03;13.93;;;4.72;;
54139;SDS011;40046;53.254;5.900;2023-05-21T07:40:29;7.60;;;3.83;;
54139;SDS011;40046;53.254;5.900;2023-05-21T07:42:55;14.82;;;5.25;;
54139;SDS011;40046;53.254;5.900;2023-05-21T07:45:24;11.40;;;4.93;;
54139;SDS011;40046;53.254;5.900;2023-05-21T07:47:50;6.78;;;4.18;;
54139;SDS011;40046;53.254;5.900;2023-05-21T07:50:17;8.43;;;4.22;;
54139;SDS011;40046;53.254;5.900;2023-05-21T07:52:43;19.45;;;4.85;;
54139;SDS011;40046;53.254;5.900;2023-05-21T07:55:09;7.57;;;4.55;;
54139;SDS011;40046;53.254;5.900;2023-05-21T07:57:37;9.52;;;4.65;;
54139;SDS011;40046;53.254;5.900;2023-05-21T08:00:09;9.43;;;3.85;;
54139;SDS011;40046;53.254;5.900;2023-05-21T08:02:40;8.05;;;4.68;;
54139;SDS011;40046;53.254;5.900;2023-05-21T08:05:07;7.20;;;4.03;;
54139;SDS011;40046;53.254;5.900;2023-05-21T08:07:34;9.05;;;4.93;;
54139;SDS011;40046;53.254;5.900;2023-05-21T08:10:01;6.82;;;3.33;;
54139;SDS011;40046;53.254;5.900;2023-05-21T08:12:28;8.55;;;3.60;;
54139;SDS011;40046;53.254;5.900;2023-05-21T08:14:56;7.28;;;3.17;;
54139;SDS011;40046;53.254;5.900;2023-05-21T08:17:23;8.95;;;4.35;;
54139;SDS011;40046;53.254;5.900;2023-05-21T08:19:49;10.82;;;4.07;;
54139;SDS011;40046;53.254;5.900;2023-05-21T08:22:16;14.48;;;4.40;;
54139;SDS011;40046;53.254;5.900;2023-05-21T08:24:44;11.35;;;5.13;;
54139;SDS011;40046;53.254;5.900;2023-05-21T08:27:10;10.05;;;4.03;;
54139;SDS011;40046;53.254;5.900;2023-05-21T08:29:37;8.38;;;3.47;;
54139;SDS011;40046;53.254;5.900;2023-05-21T08:32:04;10.00;;;3.70;;
54139;SDS011;40046;53.254;5.900;2023-05-21T08:34:30;9.40;;;3.90;;
54139;SDS011;40046;53.254;5.900;2023-05-21T08:37:20;11.05;;;3.95;;
54139;SDS011;40046;53.254;5.900;2023-05-21T08:40:12;8.00;;;2.92;;
54139;SDS011;40046;53.254;5.900;2023-05-21T08:42:45;8.15;;;3.17;;
54139;SDS011;40046;53.254;5.900;2023-05-21T08:45:19;10.48;;;6.00;;
54139;SDS011;40046;53.254;5.900;2023-05-21T08:47:46;9.88;;;4.07;;
54139;SDS011;40046;53.254;5.900;2023-05-21T08:50:15;11.07;;;3.53;;
54139;SDS011;40046;53.254;5.900;2023-05-21T08:52:45;6.93;;;3.30;;
54139;SDS011;40046;53.254;5.900;2023-05-21T08:55:11;12.68;;;3.95;;
54139;SDS011;40046;53.254;5.900;2023-05-21T08:57:42;11.52;;;3.92;;
54139;SDS011;40046;53.254;5.900;2023-05-21T09:00:11;6.80;;;3.55;;
54139;SDS011;40046;53.254;5.900;2023-05-21T09:02:38;7.80;;;3.35;;
54139;SDS011;40046;53.254;5.900;2023-05-21T09:05:06;9.55;;;3.65;;
54139;SDS011;40046;53.254;5.900;2023-05-21T09:07:38;12.95;;;4.38;;
54139;SDS011;40046;53.254;5.900;2023-05-21T09:10:16;5.43;;;3.05;;
54139;SDS011;40046;53.254;5.900;2023-05-21T09:12:43;6.90;;;4.10;;
54139;SDS011;40046;53.254;5.900;2023-05-21T09:15:09;5.47;;;3.45;;
54139;SDS011;40046;53.254;5.900;2023-05-21T09:17:37;12.48;;;4.25;;
54139;SDS011;40046;53.254;5.900;2023-05-21T09:20:19;13.95;;;4.03;;
54139;SDS011;40046;53.254;5.900;2023-05-21T09:22:53;7.55;;;3.55;;
54139;SDS011;40046;53.254;5.900;2023-05-21T09:25:21;15.60;;;4.13;;
54139;SDS011;40046;53.254;5.900;2023-05-21T09:27:48;7.13;;;3.13;;
54139;SDS011;40046;53.254;5.900;2023-05-21T09:30:15;10.80;;;3.50;;
54139;SDS011;40046;53.254;5.900;2023-05-21T09:32:42;9.57;;;3.75;;
54139;SDS011;40046;53.254;5.900;2023-05-21T09:35:10;12.20;;;3.35;;
54139;SDS011;40046;53.254;5.900;2023-05-21T09:37:37;7.85;;;3.88;;
54139;SDS011;40046;53.254;5.900;2023-05-21T09:40:13;5.30;;;2.72;;
54139;SDS011;40046;53.254;5.900;2023-05-21T09:42:41;9.02;;;3.30;;
54139;SDS011;40046;53.254;5.900;2023-05-21T09:45:08;6.35;;;3.38;;
54139;SDS011;40046;53.254;5.900;2023-05-21T09:47:41;7.63;;;3.95;;
54139;SDS011;40046;53.254;5.900;2023-05-21T09:50:09;10.55;;;4.00;;
54139;SDS011;40046;53.254;5.900;2023-05-21T09:52:36;9.13;;;3.53;;
54139;SDS011;40046;53.254;5.900;2023-05-21T09:55:05;6.03;;;3.13;;
54139;SDS011;40046;53.254;5.900;2023-05-21T09:57:32;9.73;;;4.07;;
54139;SDS011;40046;53.254;5.900;2023-05-21T09:59:58;8.65;;;3.45;;
54139;SDS011;40046;53.254;5.900;2023-05-21T10:02:24;7.93;;;3.42;;
54139;SDS011;40046;53.254;5.900;2023-05-21T10:04:53;8.90;;;3.47;;
54139;SDS011;40046;53.254;5.900;2023-05-21T10:07:20;7.95;;;3.45;;
54139;SDS011;40046;53.254;5.900;2023-05-21T10:09:53;8.77;;;4.03;;
54139;SDS011;40046;53.254;5.900;2023-05-21T10:12:23;7.22;;;3.10;;
54139;SDS011;40046;53.254;5.900;2023-05-21T10:15:08;7.57;;;2.97;;
54139;SDS011;40046;53.254;5.900;2023-05-21T10:17:37;12.65;;;3.33;;
54139;SDS011;40046;53.254;5.900;2023-05-21T10:20:04;7.70;;;3.55;;
54139;SDS011;40046;53.254;5.900;2023-05-21T10:22:31;7.38;;;3.30;;
54139;SDS011;40046;53.254;5.900;2023-05-21T10:24:57;7.72;;;3.50;;
54139;SDS011;40046;53.254;5.900;2023-05-21T10:27:23;4.78;;;2.78;;
54139;SDS011;40046;53.254;5.900;2023-05-21T10:29:50;7.75;;;3.58;;
54139;SDS011;40046;53.254;5.900;2023-05-21T10:32:17;7.60;;;3.67;;
54139;SDS011;40046;53.254;5.900;2023-05-21T10:34:45;11.00;;;5.82;;
54139;SDS011;40046;53.254;5.900;2023-05-21T10:37:11;6.50;;;3.55;;
54139;SDS011;40046;53.254;5.900;2023-05-21T10:39:37;7.90;;;3.70;;
54139;SDS011;40046;53.254;5.900;2023-05-21T10:42:15;9.57;;;3.05;;
54139;SDS011;40046;53.254;5.900;2023-05-21T10:52:43;10.70;;;3.53;;
54139;SDS011;40046;53.254;5.900;2023-05-21T11:00:32;8.53;;;3.57;;
54139;SDS011;40046;53.254;5.900;2023-05-21T11:02:59;9.68;;;4.25;;
54139;SDS011;40046;53.254;5.900;2023-05-21T11:08:23;11.60;;;4.50;;
54139;SDS011;40046;53.254;5.900;2023-05-21T11:10:53;10.63;;;4.30;;
54139;SDS011;40046;53.254;5.900;2023-05-21T11:13:22;10.30;;;3.55;;
54139;SDS011;40046;53.254;5.900;2023-05-21T11:26:19;6.15;;;3.53;;
54139;SDS011;40046;53.254;5.900;2023-05-21T11:29:24;12.37;;;5.67;;
54139;SDS011;40046;53.254;5.900;2023-05-21T11:31:44;14.90;;;4.18;;
54139;SDS011;40046;53.254;5.900;2023-05-21T11:36:37;7.35;;;3.78;;
54139;SDS011;40046;53.254;5.900;2023-05-21T11:39:07;9.38;;;4.00;;
54139;SDS011;40046;53.254;5.900;2023-05-21T11:47:04;7.15;;;4.25;;
54139;SDS011;40046;53.254;5.900;2023-05-21T11:49:31;11.38;;;4.50;;
54139;SDS011;40046;53.254;5.900;2023-05-21T11:51:58;6.07;;;3.70;;
54139;SDS011;40046;53.254;5.900;2023-05-21T11:54:24;8.88;;;3.85;;
54139;SDS011;40046;53.254;5.900;2023-05-21T11:56:51;11.93;;;4.07;;
54139;SDS011;40046;53.254;5.900;2023-05-21T11:59:17;14.00;;;4.30;;
54139;SDS011;40046;53.254;5.900;2023-05-21T12:01:43;10.02;;;4.32;;
54139;SDS011;40046;53.254;5.900;2023-05-21T12:04:10;7.30;;;3.35;;
54139;SDS011;40046;53.254;5.900;2023-05-21T12:06:41;9.13;;;4.25;;
54139;SDS011;40046;53.254;5.900;2023-05-21T12:09:08;9.70;;;4.45;;
54139;SDS011;40046;53.254;5.900;2023-05-21T12:11:37;9.38;;;4.20;;
54139;SDS011;40046;53.254;5.900;2023-05-21T12:14:06;9.43;;;3.75;;
54139;SDS011;40046;53.254;5.900;2023-05-21T12:16:36;10.32;;;4.85;;
54139;SDS011;40046;53.254;5.900;2023-05-21T12:19:02;10.60;;;4.53;;
54139;SDS011;40046;53.254;5.900;2023-05-21T12:21:28;12.73;;;5.50;;
54139;SDS011;40046;53.254;5.900;2023-05-21T12:23:55;12.52;;;3.67;;
54139;SDS011;40046;53.254;5.900;2023-05-21T12:26:22;7.93;;;4.43;;
54139;SDS011;40046;53.254;5.900;2023-05-21T12:28:55;10.73;;;4.32;;
54139;SDS011;40046;53.254;5.900;2023-05-21T12:31:21;14.20;;;4.88;;
54139;SDS011;40046;53.254;5.900;2023-05-21T12:33:48;8.13;;;4.32;;
54139;SDS011;40046;53.254;5.900;2023-05-21T12:36:21;12.77;;;5.38;;
54139;SDS011;40046;53.254;5.900;2023-05-21T12:38:48;9.83;;;4.80;;
54139;SDS011;40046;53.254;5.900;2023-05-21T12:41:16;10.80;;;4.63;;
54139;SDS011;40046;53.254;5.900;2023-05-21T12:43:43;8.63;;;4.00;;
54139;SDS011;40046;53.254;5.900;2023-05-21T12:46:10;9.20;;;4.85;;
54139;SDS011;40046;53.254;5.900;2023-05-21T12:48:46;11.00;;;5.50;;
54139;SDS011;40046;53.254;5.900;2023-05-21T12:51:12;11.20;;;5.07;;
54139;SDS011;40046;53.254;5.900;2023-05-21T12:53:42;11.82;;;5.20;;
54139;SDS011;40046;53.254;5.900;2023-05-21T12:56:11;10.50;;;5.75;;
54139;SDS011;40046;53.254;5.900;2023-05-21T12:58:38;11.23;;;6.22;;
54139;SDS011;40046;53.254;5.900;2023-05-21T13:01:05;17.42;;;6.13;;
54139;SDS011;40046;53.254;5.900;2023-05-21T13:03:32;13.18;;;6.40;;
54139;SDS011;40046;53.254;5.900;2023-05-21T13:05:58;10.40;;;5.72;;
54139;SDS011;40046;53.254;5.900;2023-05-21T13:08:25;15.15;;;5.15;;
54139;SDS011;40046;53.254;5.900;2023-05-21T13:10:51;13.63;;;6.55;;
54139;SDS011;40046;53.254;5.900;2023-05-21T13:13:17;10.68;;;6.57;;
54139;SDS011;40046;53.254;5.900;2023-05-21T13:15:44;15.38;;;6.97;;
54139;SDS011;40046;53.254;5.900;2023-05-21T13:18:10;11.75;;;6.10;;
54139;SDS011;40046;53.254;5.900;2023-05-21T13:20:36;11.38;;;5.97;;
54139;SDS011;40046;53.254;5.900;2023-05-21T13:23:03;13.13;;;6.03;;
54139;SDS011;40046;53.254;5.900;2023-05-21T13:25:29;13.80;;;6.72;;
54139;SDS011;40046;53.254;5.900;2023-05-21T13:28:02;10.60;;;6.00;;
54139;SDS011;40046;53.254;5.900;2023-05-21T13:30:29;10.70;;;6.25;;
54139;SDS011;40046;53.254;5.900;2023-05-21T13:32:57;13.23;;;6.72;;
54139;SDS011;40046;53.254;5.900;2023-05-21T13:35:23;11.93;;;6.95;;
54139;SDS011;40046;53.254;5.900;2023-05-21T13:37:49;12.95;;;7.07;;
54139;SDS011;40046;53.254;5.900;2023-05-21T13:40:15;11.95;;;6.13;;
54139;SDS011;40046;53.254;5.900;2023-05-21T13:42:45;12.68;;;6.15;;
54139;SDS011;40046;53.254;5.900;2023-05-21T13:45:13;19.48;;;7.93;;
54139;SDS011;40046;53.254;5.900;2023-05-21T13:47:40;11.60;;;7.35;;
54139;SDS011;40046;53.254;5.900;2023-05-21T13:50:07;14.82;;;8.23;;
54139;SDS011;40046;53.254;5.900;2023-05-21T13:52:33;13.50;;;8.80;;
54139;SDS011;40046;53.254;5.900;2023-05-21T13:54:59;11.85;;;9.18;;
54139;SDS011;40046;53.254;5.900;2023-05-21T13:57:25;14.52;;;10.85;;
54139;SDS011;40046;53.254;5.900;2023-05-21T13:59:54;14.98;;;10.98;;
54139;SDS011;40046;53.254;5.900;2023-05-21T14:02:21;19.38;;;11.75;;
54139;SDS011;40046;53.254;5.900;2023-05-21T14:04:47;14.93;;;11.48;;
54139;SDS011;40046;53.254;5.900;2023-05-21T14:07:13;18.92;;;11.32;;
54139;SDS011;40046;53.254;5.900;2023-05-21T14:09:40;16.40;;;11.73;;
54139;SDS011;40046;53.254;5.900;2023-05-21T14:12:06;16.75;;;10.82;;
54139;SDS011;40046;53.254;5.900;2023-05-21T14:14:32;17.02;;;12.55;;
54139;SDS011;40046;53.254;5.900;2023-05-21T14:16:59;13.90;;;10.63;;
54139;SDS011;40046;53.254;5.900;2023-05-21T14:19:25;17.17;;;11.35;;
54139;SDS011;40046;53.254;5.900;2023-05-21T14:21:51;14.07;;;9.90;;
54139;SDS011;40046;53.254;5.900;2023-05-21T14:24:17;13.85;;;10.70;;
54139;SDS011;40046;53.254;5.900;2023-05-21T14:26:43;16.10;;;10.93;;
54139;SDS011;40046;53.254;5.900;2023-05-21T14:29:10;16.75;;;9.65;;
54139;SDS011;40046;53.254;5.900;2023-05-21T14:31:36;16.63;;;12.07;;
54139;SDS011;40046;53.254;5.900;2023-05-21T14:34:02;12.75;;;10.30;;
54139;SDS011;40046;53.254;5.900;2023-05-21T14:36:31;13.30;;;9.02;;
54139;SDS011;40046;53.254;5.900;2023-05-21T14:38:57;14.77;;;9.00;;
54139;SDS011;40046;53.254;5.900;2023-05-21T14:41:23;13.00;;;9.88;;
54139;SDS011;40046;53.254;5.900;2023-05-21T14:43:53;13.30;;;10.13;;
54139;SDS011;40046;53.254;5.900;2023-05-21T14:46:19;15.18;;;10.73;;
54139;SDS011;40046;53.254;5.900;2023-05-21T14:48:45;13.45;;;9.25;;
54139;SDS011;40046;53.254;5.900;2023-05-21T14:51:12;12.70;;;9.95;;
54139;SDS011;40046;53.254;5.900;2023-05-21T14:53:38;12.70;;;10.20;;
54139;SDS011;40046;53.254;5.900;2023-05-21T14:56:05;15.60;;;10.38;;
54139;SDS011;40046;53.254;5.900;2023-05-21T14:58:31;18.08;;;10.70;;
54139;SDS011;40046;53.254;5.900;2023-05-21T15:00:57;15.18;;;10.25;;
54139;SDS011;40046;53.254;5.900;2023-05-21T15:03:23;17.38;;;10.43;;
54139;SDS011;40046;53.254;5.900;2023-05-21T15:05:50;17.02;;;11.45;;
54139;SDS011;40046;53.254;5.900;2023-05-21T15:08:16;14.05;;;9.75;;
54139;SDS011;40046;53.254;5.900;2023-05-21T15:10:42;16.25;;;10.57;;
54139;SDS011;40046;53.254;5.900;2023-05-21T15:13:08;17.13;;;11.18;;
54139;SDS011;40046;53.254;5.900;2023-05-21T15:15:34;13.93;;;10.45;;